This is the latest recevied weather packets stored in our database for station/object DH9NFM-12. If no packets are shown the sender has not sent any weather packets the latest 10 day(s).
| Time | Temp. | Humidity | Pressure | Rain* | Wind** | Luminosity | Snow |
|---|---|---|---|---|---|---|---|
| 1777192913 | 7.78° C | 77% | 1021.3 hPa | 0 mm | - | - | - |
| 1777192288 | 7.22° C | 78% | 1021.3 hPa | 0 mm | - | - | - |
| 1777191663 | 7.22° C | 77% | 1021.2 hPa | 0 mm | - | - | - |
| 1777191039 | 6.11° C | 78% | 1021.3 hPa | 0 mm | - | - | - |
| 1777190414 | 6.11° C | 82% | 1021.2 hPa | 0 mm | - | - | - |
| 1777189789 | 6.11° C | 85% | 1021.2 hPa | 0 mm | - | - | - |
| 1777189165 | 6.67° C | 84% | 1021.2 hPa | 0 mm | - | - | - |
| 1777188540 | 6.67° C | 86% | 1021 hPa | 0 mm | - | - | - |
| 1777187915 | 6.11° C | 91% | 1021.1 hPa | 0 mm | - | - | - |
| 1777187291 | 5° C | 94% | 1020.8 hPa | 0 mm | - | - | - |
| 1777186666 | 5.56° C | 93% | 1020.8 hPa | 0 mm | - | - | - |
| 1777186042 | 5° C | 95% | 1020.7 hPa | 0 mm | - | - | - |
| 1777185417 | 4.44° C | 98% | 1020.6 hPa | 0 mm | - | - | - |
| 1777184792 | 5° C | 97% | 1020.6 hPa | 0 mm | - | - | - |
| 1777184168 | 4.44° C | 10% | - | 0 mm | - | - | - |
| 1777183543 | 3.89° C | 10% | - | 0 mm | - | - | - |
| 1777182918 | 4.44° C | 10% | - | 0 mm | - | - | - |
| 1777182293 | 3.89° C | 10% | - | 0 mm | - | - | - |
| 1777181668 | 3.89° C | 10% | - | 0 mm | - | - | - |
| 1777181043 | 3.89° C | 10% | - | 0 mm | - | - | - |
| 1777180419 | 3.33° C | 10% | - | 0 mm | - | - | - |
| 1777179794 | 2.78° C | 10% | - | 0 mm | - | - | - |
| 1777179169 | 2.78° C | 10% | - | 0 mm | - | - | - |
| 1777178544 | 3.33° C | 10% | - | 0 mm | - | - | - |
| 1777177919 | 2.78° C | 10% | - | 0 mm | - | - | - |
* Rain latest hour (hover to see other rain measurements)
** Current wind speed in m/s (hover to see current wind gust speed)